sensor_id;sensor_type;location;lat;lon;timestamp;P1;durP1;ratioP1;P2;durP2;ratioP2
51792;SDS011;37850;53.178;6.376;2022-11-23T00:00:00;22.33;;;13.63;;
51792;SDS011;37850;53.178;6.376;2022-11-23T00:02:26;22.77;;;14.35;;
51792;SDS011;37850;53.178;6.376;2022-11-23T00:04:52;22.63;;;13.10;;
51792;SDS011;37850;53.178;6.376;2022-11-23T00:07:18;21.13;;;14.10;;
51792;SDS011;37850;53.178;6.376;2022-11-23T00:09:43;27.40;;;14.13;;
51792;SDS011;37850;53.178;6.376;2022-11-23T00:12:10;23.23;;;13.70;;
51792;SDS011;37850;53.178;6.376;2022-11-23T00:14:35;21.83;;;13.50;;
51792;SDS011;37850;53.178;6.376;2022-11-23T00:17:01;20.85;;;13.88;;
51792;SDS011;37850;53.178;6.376;2022-11-23T00:19:27;20.33;;;12.98;;
51792;SDS011;37850;53.178;6.376;2022-11-23T00:21:52;23.15;;;14.02;;
51792;SDS011;37850;53.178;6.376;2022-11-23T00:24:18;20.25;;;13.10;;
51792;SDS011;37850;53.178;6.376;2022-11-23T00:26:44;22.17;;;12.73;;
51792;SDS011;37850;53.178;6.376;2022-11-23T00:29:09;22.98;;;13.43;;
51792;SDS011;37850;53.178;6.376;2022-11-23T00:31:35;20.95;;;12.07;;
51792;SDS011;37850;53.178;6.376;2022-11-23T00:34:01;19.58;;;12.68;;
51792;SDS011;37850;53.178;6.376;2022-11-23T00:36:27;22.08;;;12.02;;
51792;SDS011;37850;53.178;6.376;2022-11-23T00:38:53;22.35;;;11.90;;
51792;SDS011;37850;53.178;6.376;2022-11-23T00:41:19;22.27;;;12.30;;
51792;SDS011;37850;53.178;6.376;2022-11-23T00:43:47;19.95;;;11.65;;
51792;SDS011;37850;53.178;6.376;2022-11-23T00:46:23;19.75;;;12.27;;
51792;SDS011;37850;53.178;6.376;2022-11-23T00:48:52;18.75;;;11.52;;
51792;SDS011;37850;53.178;6.376;2022-11-23T00:51:30;17.75;;;10.90;;
51792;SDS011;37850;53.178;6.376;2022-11-23T00:53:58;17.55;;;11.10;;
51792;SDS011;37850;53.178;6.376;2022-11-23T00:56:25;15.95;;;10.88;;
51792;SDS011;37850;53.178;6.376;2022-11-23T00:58:52;19.33;;;10.93;;
51792;SDS011;37850;53.178;6.376;2022-11-23T01:01:20;24.02;;;11.60;;
51792;SDS011;37850;53.178;6.376;2022-11-23T01:03:48;18.67;;;11.10;;
51792;SDS011;37850;53.178;6.376;2022-11-23T01:06:17;18.27;;;11.10;;
51792;SDS011;37850;53.178;6.376;2022-11-23T01:08:48;21.55;;;11.40;;
51792;SDS011;37850;53.178;6.376;2022-11-23T01:11:22;17.13;;;10.52;;
51792;SDS011;37850;53.178;6.376;2022-11-23T01:13:49;17.90;;;10.80;;
51792;SDS011;37850;53.178;6.376;2022-11-23T01:16:19;17.48;;;11.18;;
51792;SDS011;37850;53.178;6.376;2022-11-23T01:18:45;17.48;;;10.77;;
51792;SDS011;37850;53.178;6.376;2022-11-23T01:21:11;19.70;;;10.77;;
51792;SDS011;37850;53.178;6.376;2022-11-23T01:23:37;19.95;;;10.48;;
51792;SDS011;37850;53.178;6.376;2022-11-23T01:26:09;20.27;;;10.70;;
51792;SDS011;37850;53.178;6.376;2022-11-23T01:28:36;17.85;;;10.77;;
51792;SDS011;37850;53.178;6.376;2022-11-23T01:31:06;20.52;;;10.23;;
51792;SDS011;37850;53.178;6.376;2022-11-23T01:33:34;22.92;;;10.70;;
51792;SDS011;37850;53.178;6.376;2022-11-23T01:36:00;18.33;;;10.52;;
51792;SDS011;37850;53.178;6.376;2022-11-23T01:38:40;18.40;;;11.05;;
51792;SDS011;37850;53.178;6.376;2022-11-23T01:41:07;19.25;;;11.13;;
51792;SDS011;37850;53.178;6.376;2022-11-23T01:43:36;16.55;;;10.68;;
51792;SDS011;37850;53.178;6.376;2022-11-23T01:46:02;18.30;;;11.52;;
51792;SDS011;37850;53.178;6.376;2022-11-23T01:50:57;14.93;;;10.63;;
51792;SDS011;37850;53.178;6.376;2022-11-23T01:53:25;22.67;;;12.10;;
51792;SDS011;37850;53.178;6.376;2022-11-23T01:55:52;20.40;;;11.15;;
51792;SDS011;37850;53.178;6.376;2022-11-23T01:58:22;24.10;;;11.07;;
51792;SDS011;37850;53.178;6.376;2022-11-23T02:00:56;18.27;;;10.43;;
51792;SDS011;37850;53.178;6.376;2022-11-23T02:03:22;20.92;;;11.23;;
51792;SDS011;37850;53.178;6.376;2022-11-23T02:05:49;17.35;;;10.57;;
51792;SDS011;37850;53.178;6.376;2022-11-23T02:08:23;19.92;;;11.35;;
51792;SDS011;37850;53.178;6.376;2022-11-23T02:10:50;22.95;;;11.32;;
51792;SDS011;37850;53.178;6.376;2022-11-23T02:13:16;22.40;;;11.77;;
51792;SDS011;37850;53.178;6.376;2022-11-23T02:15:42;20.25;;;10.90;;
51792;SDS011;37850;53.178;6.376;2022-11-23T02:18:16;22.80;;;11.07;;
51792;SDS011;37850;53.178;6.376;2022-11-23T02:20:45;19.77;;;11.20;;
51792;SDS011;37850;53.178;6.376;2022-11-23T02:28:10;24.27;;;12.50;;
51792;SDS011;37850;53.178;6.376;2022-11-23T02:30:38;24.83;;;11.38;;
51792;SDS011;37850;53.178;6.376;2022-11-23T02:33:05;22.05;;;11.68;;
51792;SDS011;37850;53.178;6.376;2022-11-23T02:35:31;22.45;;;11.63;;
51792;SDS011;37850;53.178;6.376;2022-11-23T02:37:57;21.65;;;10.90;;
51792;SDS011;37850;53.178;6.376;2022-11-23T02:42:52;25.95;;;12.00;;
51792;SDS011;37850;53.178;6.376;2022-11-23T02:45:21;22.60;;;11.50;;
51792;SDS011;37850;53.178;6.376;2022-11-23T02:47:57;20.85;;;11.63;;
51792;SDS011;37850;53.178;6.376;2022-11-23T02:50:23;23.73;;;12.52;;
51792;SDS011;37850;53.178;6.376;2022-11-23T02:52:52;20.98;;;12.48;;
51792;SDS011;37850;53.178;6.376;2022-11-23T02:55:17;21.10;;;11.77;;
51792;SDS011;37850;53.178;6.376;2022-11-23T02:57:43;27.77;;;12.57;;
51792;SDS011;37850;53.178;6.376;2022-11-23T03:00:09;23.73;;;12.93;;
51792;SDS011;37850;53.178;6.376;2022-11-23T03:02:35;23.30;;;12.63;;
51792;SDS011;37850;53.178;6.376;2022-11-23T03:05:01;19.60;;;12.13;;
51792;SDS011;37850;53.178;6.376;2022-11-23T03:07:27;25.10;;;13.05;;
51792;SDS011;37850;53.178;6.376;2022-11-23T03:09:53;25.73;;;13.85;;
51792;SDS011;37850;53.178;6.376;2022-11-23T03:12:18;25.40;;;14.10;;
51792;SDS011;37850;53.178;6.376;2022-11-23T03:14:44;25.65;;;13.73;;
51792;SDS011;37850;53.178;6.376;2022-11-23T03:17:10;25.80;;;13.75;;
51792;SDS011;37850;53.178;6.376;2022-11-23T03:19:36;26.63;;;14.35;;
51792;SDS011;37850;53.178;6.376;2022-11-23T03:22:02;24.92;;;14.13;;
51792;SDS011;37850;53.178;6.376;2022-11-23T03:24:28;31.50;;;14.48;;
51792;SDS011;37850;53.178;6.376;2022-11-23T03:26:54;26.73;;;14.98;;
51792;SDS011;37850;53.178;6.376;2022-11-23T03:29:20;28.83;;;15.48;;
51792;SDS011;37850;53.178;6.376;2022-11-23T03:31:50;24.45;;;14.30;;
51792;SDS011;37850;53.178;6.376;2022-11-23T03:34:19;25.58;;;15.50;;
51792;SDS011;37850;53.178;6.376;2022-11-23T03:36:45;31.63;;;15.98;;
51792;SDS011;37850;53.178;6.376;2022-11-23T03:39:10;30.15;;;14.40;;
51792;SDS011;37850;53.178;6.376;2022-11-23T03:41:36;32.08;;;16.50;;
51792;SDS011;37850;53.178;6.376;2022-11-23T03:44:02;26.65;;;15.88;;
51792;SDS011;37850;53.178;6.376;2022-11-23T03:46:28;29.05;;;15.20;;
51792;SDS011;37850;53.178;6.376;2022-11-23T03:48:54;28.80;;;14.98;;
51792;SDS011;37850;53.178;6.376;2022-11-23T03:51:20;29.67;;;16.45;;
51792;SDS011;37850;53.178;6.376;2022-11-23T03:53:47;29.88;;;16.08;;
51792;SDS011;37850;53.178;6.376;2022-11-23T03:56:13;27.65;;;16.48;;
51792;SDS011;37850;53.178;6.376;2022-11-23T03:58:39;28.45;;;15.38;;
51792;SDS011;37850;53.178;6.376;2022-11-23T04:01:04;31.50;;;17.63;;
51792;SDS011;37850;53.178;6.376;2022-11-23T04:03:31;28.80;;;17.73;;
51792;SDS011;37850;53.178;6.376;2022-11-23T04:05:57;29.52;;;16.33;;
51792;SDS011;37850;53.178;6.376;2022-11-23T04:08:27;33.10;;;17.13;;
51792;SDS011;37850;53.178;6.376;2022-11-23T04:10:56;31.00;;;17.17;;
51792;SDS011;37850;53.178;6.376;2022-11-23T04:13:22;34.33;;;18.00;;
51792;SDS011;37850;53.178;6.376;2022-11-23T04:15:48;29.70;;;17.20;;
51792;SDS011;37850;53.178;6.376;2022-11-23T04:18:14;31.60;;;17.38;;
51792;SDS011;37850;53.178;6.376;2022-11-23T04:20:40;34.90;;;18.35;;
51792;SDS011;37850;53.178;6.376;2022-11-23T04:23:06;34.58;;;18.73;;
51792;SDS011;37850;53.178;6.376;2022-11-23T04:25:32;40.05;;;19.80;;
51792;SDS011;37850;53.178;6.376;2022-11-23T04:27:58;37.08;;;20.30;;
51792;SDS011;37850;53.178;6.376;2022-11-23T04:30:23;35.35;;;19.83;;
51792;SDS011;37850;53.178;6.376;2022-11-23T04:32:52;32.22;;;18.95;;
51792;SDS011;37850;53.178;6.376;2022-11-23T04:35:18;35.80;;;21.00;;
51792;SDS011;37850;53.178;6.376;2022-11-23T04:37:44;36.38;;;19.75;;
51792;SDS011;37850;53.178;6.376;2022-11-23T04:40:10;34.17;;;20.50;;
51792;SDS011;37850;53.178;6.376;2022-11-23T04:42:36;33.03;;;20.67;;
51792;SDS011;37850;53.178;6.376;2022-11-23T04:45:02;42.97;;;20.85;;
51792;SDS011;37850;53.178;6.376;2022-11-23T04:47:28;35.72;;;20.25;;
51792;SDS011;37850;53.178;6.376;2022-11-23T04:49:53;39.60;;;20.63;;
51792;SDS011;37850;53.178;6.376;2022-11-23T04:52:19;37.63;;;21.00;;
51792;SDS011;37850;53.178;6.376;2022-11-23T04:54:45;36.30;;;21.25;;
51792;SDS011;37850;53.178;6.376;2022-11-23T04:57:11;42.47;;;22.77;;
51792;SDS011;37850;53.178;6.376;2022-11-23T04:59:37;34.55;;;19.88;;
51792;SDS011;37850;53.178;6.376;2022-11-23T05:02:02;37.67;;;20.65;;
51792;SDS011;37850;53.178;6.376;2022-11-23T05:04:28;36.38;;;21.02;;
51792;SDS011;37850;53.178;6.376;2022-11-23T05:06:54;41.42;;;21.70;;
51792;SDS011;37850;53.178;6.376;2022-11-23T05:09:20;37.85;;;21.92;;
51792;SDS011;37850;53.178;6.376;2022-11-23T05:11:45;38.58;;;21.63;;
51792;SDS011;37850;53.178;6.376;2022-11-23T05:14:12;41.83;;;23.25;;
51792;SDS011;37850;53.178;6.376;2022-11-23T05:16:38;40.97;;;21.40;;
51792;SDS011;37850;53.178;6.376;2022-11-23T05:19:05;46.70;;;23.77;;
51792;SDS011;37850;53.178;6.376;2022-11-23T05:21:31;42.53;;;23.15;;
51792;SDS011;37850;53.178;6.376;2022-11-23T05:23:57;46.28;;;23.25;;
51792;SDS011;37850;53.178;6.376;2022-11-23T05:26:22;41.88;;;21.98;;
51792;SDS011;37850;53.178;6.376;2022-11-23T05:28:48;38.70;;;22.63;;
51792;SDS011;37850;53.178;6.376;2022-11-23T05:31:14;47.45;;;23.10;;
51792;SDS011;37850;53.178;6.376;2022-11-23T05:33:39;42.70;;;24.05;;
51792;SDS011;37850;53.178;6.376;2022-11-23T05:36:05;44.47;;;24.35;;
51792;SDS011;37850;53.178;6.376;2022-11-23T05:38:31;43.97;;;24.05;;
51792;SDS011;37850;53.178;6.376;2022-11-23T05:40:57;43.53;;;24.98;;
51792;SDS011;37850;53.178;6.376;2022-11-23T05:43:22;44.03;;;24.30;;
51792;SDS011;37850;53.178;6.376;2022-11-23T05:45:48;43.63;;;24.23;;
51792;SDS011;37850;53.178;6.376;2022-11-23T05:48:14;42.30;;;22.92;;
51792;SDS011;37850;53.178;6.376;2022-11-23T05:50:39;43.75;;;25.33;;
51792;SDS011;37850;53.178;6.376;2022-11-23T05:53:05;44.33;;;25.10;;
51792;SDS011;37850;53.178;6.376;2022-11-23T05:55:31;48.13;;;24.52;;
51792;SDS011;37850;53.178;6.376;2022-11-23T05:57:57;43.95;;;23.73;;
51792;SDS011;37850;53.178;6.376;2022-11-23T06:00:22;40.42;;;24.42;;
51792;SDS011;37850;53.178;6.376;2022-11-23T06:02:48;39.63;;;22.27;;
51792;SDS011;37850;53.178;6.376;2022-11-23T06:05:14;37.28;;;23.50;;
51792;SDS011;37850;53.178;6.376;2022-11-23T06:07:40;38.38;;;23.10;;
51792;SDS011;37850;53.178;6.376;2022-11-23T06:10:05;40.17;;;23.25;;
51792;SDS011;37850;53.178;6.376;2022-11-23T06:12:32;45.08;;;24.52;;
51792;SDS011;37850;53.178;6.376;2022-11-23T06:14:57;42.60;;;22.27;;
51792;SDS011;37850;53.178;6.376;2022-11-23T06:17:23;41.30;;;23.33;;
51792;SDS011;37850;53.178;6.376;2022-11-23T06:19:52;40.95;;;22.70;;
51792;SDS011;37850;53.178;6.376;2022-11-23T06:22:17;42.88;;;22.23;;
51792;SDS011;37850;53.178;6.376;2022-11-23T06:24:43;39.38;;;22.25;;
51792;SDS011;37850;53.178;6.376;2022-11-23T06:27:09;36.92;;;22.73;;
51792;SDS011;37850;53.178;6.376;2022-11-23T06:29:34;39.83;;;21.08;;
51792;SDS011;37850;53.178;6.376;2022-11-23T06:32:00;36.08;;;20.63;;
51792;SDS011;37850;53.178;6.376;2022-11-23T06:34:26;32.20;;;20.20;;
51792;SDS011;37850;53.178;6.376;2022-11-23T06:36:51;36.45;;;20.48;;
51792;SDS011;37850;53.178;6.376;2022-11-23T06:39:17;33.38;;;21.20;;
51792;SDS011;37850;53.178;6.376;2022-11-23T06:41:43;38.40;;;21.00;;
51792;SDS011;37850;53.178;6.376;2022-11-23T06:44:08;33.65;;;20.05;;
51792;SDS011;37850;53.178;6.376;2022-11-23T06:46:34;39.20;;;20.20;;
51792;SDS011;37850;53.178;6.376;2022-11-23T06:49:00;37.45;;;20.08;;
51792;SDS011;37850;53.178;6.376;2022-11-23T06:51:25;33.58;;;18.80;;
51792;SDS011;37850;53.178;6.376;2022-11-23T06:53:51;32.72;;;18.45;;
51792;SDS011;37850;53.178;6.376;2022-11-23T06:56:17;30.30;;;18.35;;
51792;SDS011;37850;53.178;6.376;2022-11-23T06:58:43;32.58;;;18.38;;
51792;SDS011;37850;53.178;6.376;2022-11-23T07:01:09;28.15;;;17.52;;
51792;SDS011;37850;53.178;6.376;2022-11-23T07:03:35;26.55;;;17.20;;
51792;SDS011;37850;53.178;6.376;2022-11-23T07:06:07;32.25;;;17.38;;
51792;SDS011;37850;53.178;6.376;2022-11-23T07:08:34;28.98;;;17.13;;
51792;SDS011;37850;53.178;6.376;2022-11-23T07:11:04;27.02;;;15.77;;
51792;SDS011;37850;53.178;6.376;2022-11-23T07:13:33;27.42;;;16.35;;
51792;SDS011;37850;53.178;6.376;2022-11-23T07:15:58;28.10;;;14.13;;
51792;SDS011;37850;53.178;6.376;2022-11-23T07:18:24;32.75;;;15.48;;
51792;SDS011;37850;53.178;6.376;2022-11-23T07:20:50;25.38;;;14.35;;
51792;SDS011;37850;53.178;6.376;2022-11-23T07:23:16;25.08;;;14.02;;
51792;SDS011;37850;53.178;6.376;2022-11-23T07:25:42;24.92;;;13.40;;
51792;SDS011;37850;53.178;6.376;2022-11-23T07:28:09;28.45;;;14.02;;
51792;SDS011;37850;53.178;6.376;2022-11-23T07:30:36;24.60;;;13.70;;
51792;SDS011;37850;53.178;6.376;2022-11-23T07:33:05;26.15;;;13.07;;
51792;SDS011;37850;53.178;6.376;2022-11-23T07:35:32;20.10;;;11.70;;
51792;SDS011;37850;53.178;6.376;2022-11-23T07:38:00;22.13;;;11.73;;
51792;SDS011;37850;53.178;6.376;2022-11-23T07:40:26;24.00;;;11.93;;
51792;SDS011;37850;53.178;6.376;2022-11-23T07:42:52;24.95;;;11.70;;
51792;SDS011;37850;53.178;6.376;2022-11-23T07:45:22;25.93;;;11.37;;
51792;SDS011;37850;53.178;6.376;2022-11-23T07:47:55;18.42;;;10.57;;
51792;SDS011;37850;53.178;6.376;2022-11-23T07:50:29;20.90;;;10.85;;
51792;SDS011;37850;53.178;6.376;2022-11-23T07:52:55;19.38;;;10.48;;
51792;SDS011;37850;53.178;6.376;2022-11-23T07:55:21;21.08;;;10.40;;
51792;SDS011;37850;53.178;6.376;2022-11-23T07:57:50;21.27;;;10.65;;
51792;SDS011;37850;53.178;6.376;2022-11-23T08:00:17;20.67;;;10.05;;
51792;SDS011;37850;53.178;6.376;2022-11-23T08:02:44;22.45;;;10.02;;
51792;SDS011;37850;53.178;6.376;2022-11-23T08:05:10;20.45;;;10.43;;
51792;SDS011;37850;53.178;6.376;2022-11-23T08:07:36;23.08;;;9.85;;
51792;SDS011;37850;53.178;6.376;2022-11-23T08:10:02;18.00;;;9.27;;
51792;SDS011;37850;53.178;6.376;2022-11-23T08:12:27;21.58;;;9.88;;
51792;SDS011;37850;53.178;6.376;2022-11-23T08:14:53;21.50;;;10.25;;
51792;SDS011;37850;53.178;6.376;2022-11-23T08:17:19;20.77;;;9.90;;
51792;SDS011;37850;53.178;6.376;2022-11-23T08:19:44;20.65;;;10.27;;
51792;SDS011;37850;53.178;6.376;2022-11-23T08:22:10;18.27;;;9.25;;
51792;SDS011;37850;53.178;6.376;2022-11-23T08:24:36;21.83;;;8.75;;
51792;SDS011;37850;53.178;6.376;2022-11-23T08:27:01;22.30;;;9.77;;
51792;SDS011;37850;53.178;6.376;2022-11-23T08:29:28;22.92;;;8.40;;
51792;SDS011;37850;53.178;6.376;2022-11-23T08:31:54;19.88;;;8.63;;
51792;SDS011;37850;53.178;6.376;2022-11-23T08:34:23;19.95;;;8.50;;
51792;SDS011;37850;53.178;6.376;2022-11-23T08:36:48;23.17;;;8.48;;
51792;SDS011;37850;53.178;6.376;2022-11-23T08:39:14;18.80;;;7.90;;
51792;SDS011;37850;53.178;6.376;2022-11-23T08:41:41;16.98;;;7.93;;
51792;SDS011;37850;53.178;6.376;2022-11-23T08:44:07;15.70;;;6.90;;
51792;SDS011;37850;53.178;6.376;2022-11-23T08:46:35;18.20;;;7.07;;
51792;SDS011;37850;53.178;6.376;2022-11-23T08:49:01;22.75;;;7.85;;
51792;SDS011;37850;53.178;6.376;2022-11-23T08:51:27;13.82;;;7.13;;
51792;SDS011;37850;53.178;6.376;2022-11-23T08:53:53;20.20;;;7.45;;
51792;SDS011;37850;53.178;6.376;2022-11-23T08:56:19;16.50;;;6.88;;
51792;SDS011;37850;53.178;6.376;2022-11-23T08:58:45;17.48;;;6.55;;
51792;SDS011;37850;53.178;6.376;2022-11-23T09:01:12;19.73;;;6.93;;
51792;SDS011;37850;53.178;6.376;2022-11-23T09:03:39;21.88;;;6.90;;
51792;SDS011;37850;53.178;6.376;2022-11-23T09:06:06;18.48;;;6.28;;
51792;SDS011;37850;53.178;6.376;2022-11-23T09:08:32;15.88;;;7.13;;
51792;SDS011;37850;53.178;6.376;2022-11-23T09:11:00;19.13;;;6.47;;
51792;SDS011;37850;53.178;6.376;2022-11-23T09:13:27;17.10;;;6.10;;
51792;SDS011;37850;53.178;6.376;2022-11-23T09:15:59;20.02;;;6.32;;
51792;SDS011;37850;53.178;6.376;2022-11-23T09:18:26;18.63;;;6.40;;
51792;SDS011;37850;53.178;6.376;2022-11-23T09:20:54;16.83;;;6.07;;
51792;SDS011;37850;53.178;6.376;2022-11-23T09:23:21;15.85;;;5.90;;
51792;SDS011;37850;53.178;6.376;2022-11-23T09:25:47;18.30;;;5.75;;
51792;SDS011;37850;53.178;6.376;2022-11-23T09:28:14;19.58;;;5.97;;
51792;SDS011;37850;53.178;6.376;2022-11-23T09:30:43;21.38;;;6.30;;
51792;SDS011;37850;53.178;6.376;2022-11-23T09:33:11;17.08;;;6.32;;
51792;SDS011;37850;53.178;6.376;2022-11-23T09:35:37;15.18;;;5.40;;
51792;SDS011;37850;53.178;6.376;2022-11-23T09:38:03;23.35;;;5.97;;
51792;SDS011;37850;53.178;6.376;2022-11-23T09:40:32;20.25;;;5.20;;
51792;SDS011;37850;53.178;6.376;2022-11-23T09:43:06;23.27;;;5.55;;
51792;SDS011;37850;53.178;6.376;2022-11-23T09:45:55;18.00;;;5.30;;
51792;SDS011;37850;53.178;6.376;2022-11-23T09:51:18;16.05;;;5.30;;
51792;SDS011;37850;53.178;6.376;2022-11-23T09:58:48;18.38;;;4.35;;
51792;SDS011;37850;53.178;6.376;2022-11-23T10:01:20;15.77;;;4.50;;
51792;SDS011;37850;53.178;6.376;2022-11-23T10:03:46;14.35;;;4.22;;
51792;SDS011;37850;53.178;6.376;2022-11-23T10:06:22;11.52;;;4.28;;
51792;SDS011;37850;53.178;6.376;2022-11-23T10:09:17;18.10;;;4.57;;
51792;SDS011;37850;53.178;6.376;2022-11-23T10:12:03;13.27;;;4.40;;
51792;SDS011;37850;53.178;6.376;2022-11-23T10:23:12;14.20;;;4.15;;
51792;SDS011;37850;53.178;6.376;2022-11-23T10:25:46;16.25;;;4.63;;
51792;SDS011;37850;53.178;6.376;2022-11-23T10:28:15;16.55;;;4.38;;
51792;SDS011;37850;53.178;6.376;2022-11-23T10:30:50;16.65;;;4.60;;
51792;SDS011;37850;53.178;6.376;2022-11-23T10:33:29;16.67;;;4.85;;
51792;SDS011;37850;53.178;6.376;2022-11-23T10:35:56;21.55;;;4.95;;
51792;SDS011;37850;53.178;6.376;2022-11-23T10:38:26;17.80;;;4.90;;
51792;SDS011;37850;53.178;6.376;2022-11-23T10:43:42;24.98;;;4.72;;
51792;SDS011;37850;53.178;6.376;2022-11-23T10:46:29;19.70;;;4.90;;
51792;SDS011;37850;53.178;6.376;2022-11-23T10:49:17;20.95;;;4.70;;
51792;SDS011;37850;53.178;6.376;2022-11-23T10:51:50;15.70;;;4.43;;
51792;SDS011;37850;53.178;6.376;2022-11-23T10:56:46;20.65;;;4.60;;
51792;SDS011;37850;53.178;6.376;2022-11-23T10:59:30;14.55;;;3.95;;
51792;SDS011;37850;53.178;6.376;2022-11-23T11:04:38;21.95;;;4.25;;
51792;SDS011;37850;53.178;6.376;2022-11-23T11:07:15;18.55;;;4.15;;
51792;SDS011;37850;53.178;6.376;2022-11-23T11:09:49;18.88;;;4.25;;
51792;SDS011;37850;53.178;6.376;2022-11-23T11:12:24;16.48;;;4.05;;
51792;SDS011;37850;53.178;6.376;2022-11-23T11:14:58;14.05;;;3.25;;
51792;SDS011;37850;53.178;6.376;2022-11-23T11:17:30;22.15;;;4.35;;
51792;SDS011;37850;53.178;6.376;2022-11-23T11:22:34;14.93;;;3.67;;
51792;SDS011;37850;53.178;6.376;2022-11-23T11:25:01;17.42;;;3.53;;
51792;SDS011;37850;53.178;6.376;2022-11-23T11:27:29;14.45;;;3.30;;
51792;SDS011;37850;53.178;6.376;2022-11-23T11:30:05;20.17;;;3.65;;
51792;SDS011;37850;53.178;6.376;2022-11-23T11:32:47;15.48;;;2.88;;
51792;SDS011;37850;53.178;6.376;2022-11-23T11:35:28;15.30;;;3.75;;
51792;SDS011;37850;53.178;6.376;2022-11-23T11:38:08;20.48;;;3.45;;
51792;SDS011;37850;53.178;6.376;2022-11-23T11:40:46;18.10;;;3.35;;
51792;SDS011;37850;53.178;6.376;2022-11-23T11:43:18;17.67;;;2.95;;
51792;SDS011;37850;53.178;6.376;2022-11-23T11:45:47;12.93;;;2.85;;
51792;SDS011;37850;53.178;6.376;2022-11-23T11:48:33;16.67;;;2.83;;
51792;SDS011;37850;53.178;6.376;2022-11-23T11:51:11;17.58;;;2.90;;
51792;SDS011;37850;53.178;6.376;2022-11-23T11:56:21;16.80;;;2.90;;
51792;SDS011;37850;53.178;6.376;2022-11-23T12:04:34;16.33;;;2.90;;
51792;SDS011;37850;53.178;6.376;2022-11-23T12:07:17;15.98;;;2.67;;
51792;SDS011;37850;53.178;6.376;2022-11-23T12:09:50;18.33;;;3.03;;
51792;SDS011;37850;53.178;6.376;2022-11-23T12:12:20;16.92;;;3.15;;
51792;SDS011;37850;53.178;6.376;2022-11-23T12:14:46;16.13;;;3.03;;
51792;SDS011;37850;53.178;6.376;2022-11-23T12:19:47;14.63;;;2.78;;
51792;SDS011;37850;53.178;6.376;2022-11-23T12:27:58;14.55;;;2.42;;
51792;SDS011;37850;53.178;6.376;2022-11-23T12:30:59;16.73;;;2.60;;
51792;SDS011;37850;53.178;6.376;2022-11-23T12:33:37;18.77;;;3.20;;
51792;SDS011;37850;53.178;6.376;2022-11-23T12:36:11;11.82;;;2.58;;
51792;SDS011;37850;53.178;6.376;2022-11-23T12:38:58;17.42;;;2.78;;
51792;SDS011;37850;53.178;6.376;2022-11-23T12:50:04;13.93;;;2.28;;
51792;SDS011;37850;53.178;6.376;2022-11-23T12:52:38;15.23;;;2.75;;
51792;SDS011;37850;53.178;6.376;2022-11-23T12:58:30;19.90;;;2.38;;
51792;SDS011;37850;53.178;6.376;2022-11-23T13:09:11;16.20;;;2.47;;
51792;SDS011;37850;53.178;6.376;2022-11-23T13:12:41;16.45;;;2.20;;
51792;SDS011;37850;53.178;6.376;2022-11-23T13:15:14;12.13;;;1.83;;
51792;SDS011;37850;53.178;6.376;2022-11-23T13:21:06;11.95;;;2.15;;
51792;SDS011;37850;53.178;6.376;2022-11-23T13:23:36;13.82;;;2.40;;
51792;SDS011;37850;53.178;6.376;2022-11-23T13:26:19;13.88;;;2.60;;
51792;SDS011;37850;53.178;6.376;2022-11-23T13:28:47;11.88;;;1.90;;
51792;SDS011;37850;53.178;6.376;2022-11-23T13:33:41;11.95;;;1.90;;
51792;SDS011;37850;53.178;6.376;2022-11-23T13:36:09;14.35;;;2.17;;
51792;SDS011;37850;53.178;6.376;2022-11-23T13:38:40;12.98;;;2.25;;
51792;SDS011;37850;53.178;6.376;2022-11-23T13:46:42;13.68;;;2.22;;
51792;SDS011;37850;53.178;6.376;2022-11-23T13:57:37;10.07;;;1.92;;
51792;SDS011;37850;53.178;6.376;2022-11-23T14:09:29;12.38;;;2.17;;
51792;SDS011;37850;53.178;6.376;2022-11-23T14:14:52;10.48;;;1.90;;
51792;SDS011;37850;53.178;6.376;2022-11-23T14:31:42;15.75;;;2.17;;
51792;SDS011;37850;53.178;6.376;2022-11-23T14:39:47;8.65;;;1.70;;
51792;SDS011;37850;53.178;6.376;2022-11-23T14:42:51;12.93;;;2.03;;
51792;SDS011;37850;53.178;6.376;2022-11-23T14:45:22;9.55;;;1.50;;
51792;SDS011;37850;53.178;6.376;2022-11-23T14:47:51;14.70;;;1.77;;
51792;SDS011;37850;53.178;6.376;2022-11-23T14:50:20;11.35;;;1.85;;
51792;SDS011;37850;53.178;6.376;2022-11-23T14:52:51;13.18;;;1.85;;
51792;SDS011;37850;53.178;6.376;2022-11-23T14:55:29;13.30;;;1.90;;
51792;SDS011;37850;53.178;6.376;2022-11-23T14:57:59;13.07;;;1.70;;
51792;SDS011;37850;53.178;6.376;2022-11-23T15:00:38;10.33;;;2.10;;
51792;SDS011;37850;53.178;6.376;2022-11-23T15:03:11;11.10;;;1.90;;
51792;SDS011;37850;53.178;6.376;2022-11-23T15:05:39;10.68;;;1.88;;
51792;SDS011;37850;53.178;6.376;2022-11-23T15:08:29;13.35;;;2.08;;
51792;SDS011;37850;53.178;6.376;2022-11-23T15:11:13;13.70;;;2.03;;
51792;SDS011;37850;53.178;6.376;2022-11-23T15:13:48;12.77;;;1.88;;
51792;SDS011;37850;53.178;6.376;2022-11-23T15:16:17;9.70;;;2.00;;
51792;SDS011;37850;53.178;6.376;2022-11-23T15:18:44;8.50;;;1.77;;
51792;SDS011;37850;53.178;6.376;2022-11-23T15:21:18;10.70;;;1.60;;
51792;SDS011;37850;53.178;6.376;2022-11-23T15:26:28;12.52;;;2.17;;
51792;SDS011;37850;53.178;6.376;2022-11-23T15:29:04;12.57;;;1.80;;
51792;SDS011;37850;53.178;6.376;2022-11-23T15:31:50;12.57;;;1.80;;
51792;SDS011;37850;53.178;6.376;2022-11-23T15:34:15;7.57;;;2.08;;
51792;SDS011;37850;53.178;6.376;2022-11-23T15:36:42;14.52;;;1.80;;
51792;SDS011;37850;53.178;6.376;2022-11-23T15:39:15;7.55;;;1.73;;
51792;SDS011;37850;53.178;6.376;2022-11-23T15:41:46;13.32;;;2.17;;
51792;SDS011;37850;53.178;6.376;2022-11-23T15:44:16;12.13;;;2.17;;
51792;SDS011;37850;53.178;6.376;2022-11-23T15:46:54;10.70;;;2.10;;
51792;SDS011;37850;53.178;6.376;2022-11-23T15:49:24;13.73;;;1.90;;
51792;SDS011;37850;53.178;6.376;2022-11-23T15:51:50;10.50;;;2.03;;
51792;SDS011;37850;53.178;6.376;2022-11-23T15:54:24;12.38;;;2.40;;
51792;SDS011;37850;53.178;6.376;2022-11-23T15:56:59;7.15;;;1.70;;
51792;SDS011;37850;53.178;6.376;2022-11-23T15:59:46;14.63;;;2.20;;
51792;SDS011;37850;53.178;6.376;2022-11-23T16:02:24;10.90;;;1.90;;
51792;SDS011;37850;53.178;6.376;2022-11-23T16:05:03;9.45;;;1.88;;
51792;SDS011;37850;53.178;6.376;2022-11-23T16:07:52;7.53;;;1.95;;
51792;SDS011;37850;53.178;6.376;2022-11-23T16:10:24;10.10;;;1.85;;
51792;SDS011;37850;53.178;6.376;2022-11-23T16:12:52;11.07;;;2.13;;
51792;SDS011;37850;53.178;6.376;2022-11-23T16:18:02;8.90;;;1.70;;
51792;SDS011;37850;53.178;6.376;2022-11-23T16:20:30;10.80;;;2.22;;
51792;SDS011;37850;53.178;6.376;2022-11-23T16:22:57;10.88;;;2.03;;
51792;SDS011;37850;53.178;6.376;2022-11-23T16:25:28;13.20;;;2.55;;
51792;SDS011;37850;53.178;6.376;2022-11-23T16:27:59;10.80;;;2.03;;
51792;SDS011;37850;53.178;6.376;2022-11-23T16:30:37;13.07;;;2.00;;
51792;SDS011;37850;53.178;6.376;2022-11-23T16:33:04;10.25;;;2.40;;
51792;SDS011;37850;53.178;6.376;2022-11-23T16:35:36;13.73;;;1.73;;
51792;SDS011;37850;53.178;6.376;2022-11-23T16:38:02;8.73;;;2.25;;
51792;SDS011;37850;53.178;6.376;2022-11-23T16:40:29;7.63;;;1.75;;
51792;SDS011;37850;53.178;6.376;2022-11-23T16:42:58;8.10;;;1.88;;
51792;SDS011;37850;53.178;6.376;2022-11-23T16:45:24;9.05;;;1.70;;
51792;SDS011;37850;53.178;6.376;2022-11-23T16:50:18;8.30;;;1.98;;
51792;SDS011;37850;53.178;6.376;2022-11-23T16:52:44;10.48;;;2.35;;